Time;durP1;ratioP1;P1;durP2;ratioP2;P2;SDS_P1;SDS_P2;PMS_P1;PMS_P2;Temp;Humidity;BMP_temperature;BMP_pressure;BME280_temperature;BME280_humidity;BME280_pressure;Samples;Min_cycle;Max_cycle;Signal;HPM_P1;HPM_P2
2022/04/06 00:02:13;;;;;;;18.60;6.20;;;;;;;;;;4951815;28;20441;-61
2022/04/06 00:04:38;;;;;;;10.88;6.05;;;;;;;;;;4952746;28;20500;-62
2022/04/06 00:07:04;;;;;;;12.18;6.15;;;;;;;;;;4951594;28;20391;-62
2022/04/06 00:09:29;;;;;;;11.40;5.95;;;;;;;;;;4951743;28;20054;-63
2022/04/06 00:11:55;;;;;;;9.80;5.53;;;;;;;;;;4950627;28;20109;-62
2022/04/06 00:14:21;;;;;;;12.68;6.32;;;;;;;;;;4952830;28;20401;-62
2022/04/06 00:16:46;;;;;;;13.30;6.00;;;;;;;;;;4951652;28;20108;-62
2022/04/06 00:19:11;;;;;;;10.05;6.18;;;;;;;;;;4952166;28;20445;-62
2022/04/06 00:21:37;;;;;;;14.52;6.70;;;;;;;;;;4952238;28;20330;-62
2022/04/06 00:24:02;;;;;;;10.18;5.43;;;;;;;;;;4951220;28;20328;-62
2022/04/06 00:26:28;;;;;;;12.57;6.18;;;;;;;;;;4952062;28;20429;-63
2022/04/06 00:28:53;;;;;;;10.55;5.75;;;;;;;;;;4951818;28;20418;-62
2022/04/06 00:31:18;;;;;;;13.60;6.35;;;;;;;;;;4951575;28;20425;-63
2022/04/06 00:33:44;;;;;;;13.18;5.93;;;;;;;;;;4951013;28;20416;-62
2022/04/06 00:36:09;;;;;;;11.75;4.78;;;;;;;;;;4951011;28;20402;-61
2022/04/06 00:38:35;;;;;;;12.85;5.53;;;;;;;;;;4950306;28;20453;-63
2022/04/06 00:41:00;;;;;;;8.70;4.97;;;;;;;;;;4951420;28;20433;-62
2022/04/06 00:43:25;;;;;;;9.35;4.75;;;;;;;;;;4950904;28;20049;-62
2022/04/06 00:45:51;;;;;;;9.88;4.80;;;;;;;;;;4950916;28;20511;-62
2022/04/06 00:48:16;;;;;;;9.90;4.95;;;;;;;;;;4951071;28;20429;-62
2022/04/06 00:50:42;;;;;;;10.65;5.50;;;;;;;;;;4951029;28;20340;-62
2022/04/06 00:53:08;;;;;;;9.65;4.38;;;;;;;;;;4950484;28;20117;-62
2022/04/06 00:55:36;;;;;;;9.48;4.60;;;;;;;;;;4934092;28;20141;-62
2022/04/06 00:58:02;;;;;;;8.23;4.63;;;;;;;;;;4950636;28;20504;-62
2022/04/06 01:00:27;;;;;;;9.98;5.15;;;;;;;;;;4953940;28;20409;-62
2022/04/06 01:02:52;;;;;;;11.32;5.20;;;;;;;;;;4960299;28;20425;-63
2022/04/06 01:05:18;;;;;;;8.95;4.80;;;;;;;;;;4951673;28;20333;-62
2022/04/06 01:07:48;;;;;;;9.73;4.75;;;;;;;;;;4933386;28;20365;-63
2022/04/06 01:10:14;;;;;;;9.95;4.68;;;;;;;;;;4950123;28;20321;-62
2022/04/06 01:12:40;;;;;;;11.75;5.03;;;;;;;;;;4950712;28;20349;-63
2022/04/06 01:15:07;;;;;;;11.50;5.80;;;;;;;;;;4950915;28;20394;-62
2022/04/06 01:17:35;;;;;;;11.90;5.18;;;;;;;;;;4950197;28;20386;-63
2022/04/06 01:20:05;;;;;;;7.88;4.70;;;;;;;;;;4950155;28;20396;-62
2022/04/06 01:22:30;;;;;;;8.00;4.30;;;;;;;;;;4950071;28;20459;-62
2022/04/06 01:24:56;;;;;;;7.47;4.22;;;;;;;;;;4948774;28;20422;-63
2022/04/06 01:27:21;;;;;;;6.80;4.07;;;;;;;;;;4951210;28;20472;-62
2022/04/06 01:29:48;;;;;;;9.50;4.00;;;;;;;;;;4950304;28;20401;-63
2022/04/06 01:32:16;;;;;;;7.25;3.67;;;;;;;;;;4949670;28;20480;-63
2022/04/06 01:34:43;;;;;;;9.98;4.13;;;;;;;;;;4950265;28;20373;-62
2022/04/06 01:37:10;;;;;;;6.53;3.58;;;;;;;;;;4949776;28;20364;-62
2022/04/06 01:39:36;;;;;;;6.75;3.92;;;;;;;;;;4949702;28;20369;-62
2022/04/06 01:42:05;;;;;;;7.07;4.15;;;;;;;;;;4950022;28;20366;-63
2022/04/06 01:44:32;;;;;;;10.48;4.35;;;;;;;;;;4950843;28;20461;-62
2022/04/06 01:46:58;;;;;;;8.63;4.13;;;;;;;;;;4949728;28;20471;-64
2022/04/06 01:52:13;;;;;;;7.25;3.92;;;;;;;;;;4951196;28;20397;-62
2022/04/06 01:54:41;;;;;;;7.90;3.92;;;;;;;;;;4950105;28;20445;-62
2022/04/06 01:57:06;;;;;;;6.28;3.78;;;;;;;;;;4949633;28;20584;-62
2022/04/06 01:59:31;;;;;;;7.10;3.53;;;;;;;;;;4949704;28;20315;-62
2022/04/06 02:01:57;;;;;;;7.80;3.78;;;;;;;;;;4949368;28;20433;-62
2022/04/06 02:04:22;;;;;;;6.95;3.92;;;;;;;;;;4950369;28;20548;-62
2022/04/06 02:06:48;;;;;;;6.57;3.58;;;;;;;;;;4950100;28;20038;-63
2022/04/06 02:09:13;;;;;;;6.25;3.22;;;;;;;;;;4950362;28;20516;-63
2022/04/06 02:11:39;;;;;;;7.82;3.88;;;;;;;;;;4950641;28;20519;-62
2022/04/06 02:14:05;;;;;;;7.38;3.38;;;;;;;;;;4932004;28;20323;-62
2022/04/06 02:16:32;;;;;;;7.53;3.92;;;;;;;;;;4949183;28;20330;-63
2022/04/06 02:18:57;;;;;;;6.85;3.60;;;;;;;;;;4949583;28;20426;-62
2022/04/06 02:21:23;;;;;;;6.78;4.18;;;;;;;;;;4949500;28;20317;-63
2022/04/06 02:23:48;;;;;;;6.70;4.28;;;;;;;;;;4950084;28;20041;-63
2022/04/06 02:26:13;;;;;;;7.78;4.13;;;;;;;;;;4949251;28;20437;-62
2022/04/06 02:28:39;;;;;;;7.05;3.67;;;;;;;;;;4949815;28;20407;-63
2022/04/06 02:31:04;;;;;;;6.38;3.38;;;;;;;;;;4949359;28;20333;-65
2022/04/06 02:33:29;;;;;;;6.00;3.13;;;;;;;;;;4950019;28;20517;-62
2022/04/06 02:35:54;;;;;;;10.20;4.22;;;;;;;;;;4952877;28;20467;-62
2022/04/06 02:38:20;;;;;;;7.88;4.22;;;;;;;;;;4954948;28;20337;-62
2022/04/06 02:40:46;;;;;;;6.88;3.90;;;;;;;;;;4952996;28;20326;-61
2022/04/06 02:43:11;;;;;;;6.00;3.28;;;;;;;;;;4952968;28;20030;-62
2022/04/06 02:45:37;;;;;;;5.85;3.67;;;;;;;;;;4952976;28;20060;-62
2022/04/06 02:48:02;;;;;;;6.45;3.88;;;;;;;;;;4952887;28;20516;-62
2022/04/06 02:50:28;;;;;;;5.70;3.20;;;;;;;;;;4953744;28;20025;-62
2022/04/06 02:52:53;;;;;;;10.52;3.92;;;;;;;;;;4953100;28;20414;-62
2022/04/06 02:55:18;;;;;;;5.68;3.28;;;;;;;;;;4952800;28;20321;-63
2022/04/06 02:57:44;;;;;;;7.72;3.60;;;;;;;;;;4952768;28;20457;-62
2022/04/06 03:00:09;;;;;;;7.38;3.58;;;;;;;;;;4952412;28;20366;-62
2022/04/06 03:02:35;;;;;;;6.45;3.10;;;;;;;;;;4952558;28;20448;-63
2022/04/06 03:05:00;;;;;;;6.07;3.08;;;;;;;;;;4953642;28;20380;-62
2022/04/06 03:07:26;;;;;;;6.25;3.50;;;;;;;;;;4952446;28;20026;-63
2022/04/06 03:09:51;;;;;;;6.35;3.38;;;;;;;;;;4952907;28;20464;-63
2022/04/06 03:12:16;;;;;;;5.22;3.25;;;;;;;;;;4952729;28;20110;-62
2022/04/06 03:14:42;;;;;;;8.43;3.45;;;;;;;;;;4952303;28;20101;-63
2022/04/06 03:17:07;;;;;;;7.68;3.58;;;;;;;;;;4952259;28;20456;-62
2022/04/06 03:19:32;;;;;;;6.10;3.15;;;;;;;;;;4952491;28;20473;-62
2022/04/06 03:21:58;;;;;;;3.83;3.00;;;;;;;;;;4952707;28;20432;-62
2022/04/06 03:24:23;;;;;;;7.22;3.33;;;;;;;;;;4952195;28;20422;-62
2022/04/06 03:26:48;;;;;;;5.45;3.13;;;;;;;;;;4952889;28;20509;-63
2022/04/06 03:29:13;;;;;;;7.68;3.63;;;;;;;;;;4952145;28;20429;-61
2022/04/06 03:31:40;;;;;;;5.13;3.00;;;;;;;;;;4952436;28;20452;-63
2022/04/06 03:34:05;;;;;;;7.32;3.08;;;;;;;;;;4952179;28;20196;-62
2022/04/06 03:36:30;;;;;;;4.38;3.00;;;;;;;;;;4952290;28;20030;-62
2022/04/06 03:38:56;;;;;;;5.55;3.65;;;;;;;;;;4952181;28;20337;-62
2022/04/06 03:41:21;;;;;;;5.25;3.42;;;;;;;;;;4951743;28;20069;-62
2022/04/06 03:43:46;;;;;;;4.93;3.08;;;;;;;;;;4952290;28;20030;-62
2022/04/06 03:46:13;;;;;;;5.72;3.08;;;;;;;;;;4951672;28;20448;-62
2022/04/06 03:48:38;;;;;;;6.60;3.80;;;;;;;;;;4952143;28;20030;-63
2022/04/06 03:51:04;;;;;;;6.88;3.33;;;;;;;;;;4952064;28;20410;-61
2022/04/06 03:53:29;;;;;;;7.95;3.35;;;;;;;;;;4951551;28;20430;-62
2022/04/06 03:55:54;;;;;;;4.18;2.72;;;;;;;;;;4951683;28;20471;-62
2022/04/06 03:58:19;;;;;;;6.95;3.50;;;;;;;;;;4952040;28;20472;-62
2022/04/06 04:00:45;;;;;;;5.85;3.58;;;;;;;;;;4951535;28;20397;-62
2022/04/06 04:03:10;;;;;;;8.15;3.22;;;;;;;;;;4951718;28;20504;-62
2022/04/06 04:05:36;;;;;;;5.40;3.35;;;;;;;;;;4951283;28;20508;-62
2022/04/06 04:08:01;;;;;;;6.28;3.22;;;;;;;;;;4952753;28;20026;-63
2022/04/06 04:10:26;;;;;;;6.95;3.35;;;;;;;;;;4951027;28;20341;-62
2022/04/06 04:12:52;;;;;;;5.28;3.30;;;;;;;;;;4951215;28;20049;-62
2022/04/06 04:15:17;;;;;;;7.75;2.88;;;;;;;;;;4951254;28;20555;-62
2022/04/06 04:17:42;;;;;;;7.15;3.45;;;;;;;;;;4951435;28;20030;-62
2022/04/06 04:20:09;;;;;;;5.32;3.22;;;;;;;;;;4951783;28;20341;-63
2022/04/06 04:22:34;;;;;;;3.92;2.92;;;;;;;;;;4951952;28;20437;-63
2022/04/06 04:24:59;;;;;;;5.38;3.45;;;;;;;;;;4951290;28;20446;-62
2022/04/06 04:27:25;;;;;;;5.38;2.97;;;;;;;;;;4951105;28;20317;-63
2022/04/06 04:29:50;;;;;;;5.53;2.88;;;;;;;;;;4951548;28;20449;-62
2022/04/06 04:32:16;;;;;;;5.60;2.97;;;;;;;;;;4951168;28;20353;-63
2022/04/06 04:34:42;;;;;;;5.72;2.97;;;;;;;;;;4952355;28;20330;-63
2022/04/06 04:37:07;;;;;;;4.90;3.10;;;;;;;;;;4951869;28;20421;-62
2022/04/06 04:39:33;;;;;;;4.90;2.95;;;;;;;;;;4950601;28;20377;-62
2022/04/06 04:41:58;;;;;;;4.18;2.90;;;;;;;;;;4950886;28;20406;-62
2022/04/06 04:44:23;;;;;;;5.40;2.90;;;;;;;;;;4951016;28;20433;-63
2022/04/06 04:46:49;;;;;;;5.05;3.35;;;;;;;;;;4951894;28;20457;-62
2022/04/06 04:49:14;;;;;;;6.50;2.83;;;;;;;;;;4951054;28;20495;-62
2022/04/06 04:51:39;;;;;;;4.90;3.13;;;;;;;;;;4951965;28;20034;-62
2022/04/06 04:54:05;;;;;;;6.07;3.63;;;;;;;;;;4951034;28;20053;-62
2022/04/06 04:56:32;;;;;;;5.43;3.33;;;;;;;;;;4951568;28;20472;-64
2022/04/06 04:58:58;;;;;;;4.40;2.88;;;;;;;;;;4951478;28;21171;-62
2022/04/06 05:01:24;;;;;;;4.63;3.00;;;;;;;;;;4950416;28;20022;-61
2022/04/06 05:03:49;;;;;;;5.38;2.72;;;;;;;;;;4950414;28;20021;-62
2022/04/06 05:06:15;;;;;;;7.05;3.42;;;;;;;;;;4951447;28;20038;-64
2022/04/06 05:08:40;;;;;;;6.03;3.15;;;;;;;;;;4950415;28;20342;-62
2022/04/06 05:11:05;;;;;;;5.45;3.25;;;;;;;;;;4950586;28;20129;-63
2022/04/06 05:13:31;;;;;;;4.22;3.20;;;;;;;;;;4950478;28;20515;-62
2022/04/06 05:15:57;;;;;;;5.68;3.03;;;;;;;;;;4951279;28;20030;-62
2022/04/06 05:18:22;;;;;;;7.30;2.70;;;;;;;;;;4950693;28;20350;-63
2022/04/06 05:20:47;;;;;;;5.78;3.10;;;;;;;;;;4950364;28;20044;-62
2022/04/06 05:23:12;;;;;;;4.88;3.10;;;;;;;;;;4950970;28;20034;-62
2022/04/06 05:25:38;;;;;;;5.75;3.55;;;;;;;;;;4950080;28;20439;-62
2022/04/06 05:28:04;;;;;;;6.05;3.78;;;;;;;;;;4950973;28;20413;-61
2022/04/06 05:30:31;;;;;;;8.50;4.00;;;;;;;;;;4950509;28;20338;-62
2022/04/06 05:32:56;;;;;;;6.07;3.00;;;;;;;;;;4950495;28;20314;-62
2022/04/06 05:35:24;;;;;;;4.70;2.67;;;;;;;;;;4950388;28;20381;-62
2022/04/06 05:37:49;;;;;;;4.25;2.80;;;;;;;;;;4950189;28;20357;-63
2022/04/06 05:40:16;;;;;;;4.80;2.60;;;;;;;;;;4949541;28;20370;-62
2022/04/06 05:42:42;;;;;;;4.97;3.10;;;;;;;;;;4950626;28;20377;-62
2022/04/06 05:45:08;;;;;;;4.82;3.40;;;;;;;;;;4950049;28;20348;-62
2022/04/06 05:47:34;;;;;;;5.15;3.30;;;;;;;;;;4950580;28;20389;-62
2022/04/06 05:49:59;;;;;;;5.82;3.40;;;;;;;;;;4949656;28;20494;-62
2022/04/06 05:52:25;;;;;;;5.18;3.30;;;;;;;;;;4948377;28;20026;-61
2022/04/06 05:54:51;;;;;;;6.97;3.15;;;;;;;;;;4950239;28;20340;-63
2022/04/06 05:57:17;;;;;;;5.90;3.42;;;;;;;;;;4949812;28;20029;-62
2022/04/06 05:59:42;;;;;;;4.88;3.35;;;;;;;;;;4946467;28;20034;-62
2022/04/06 06:02:08;;;;;;;5.65;3.40;;;;;;;;;;4951635;28;20418;-62
2022/04/06 06:04:33;;;;;;;5.30;3.10;;;;;;;;;;4949476;28;20057;-63
2022/04/06 06:06:59;;;;;;;6.75;3.40;;;;;;;;;;4949770;28;20341;-62
2022/04/06 06:09:24;;;;;;;5.63;3.33;;;;;;;;;;4952196;28;20380;-62
2022/04/06 06:11:49;;;;;;;5.28;3.40;;;;;;;;;;4953584;28;20426;-63
2022/04/06 06:14:15;;;;;;;6.85;3.40;;;;;;;;;;4953733;28;20334;-62
2022/04/06 06:16:40;;;;;;;6.93;3.40;;;;;;;;;;4951758;28;20468;-62
2022/04/06 06:19:05;;;;;;;5.93;3.95;;;;;;;;;;4954300;28;20429;-62
2022/04/06 06:21:32;;;;;;;7.65;3.33;;;;;;;;;;4953270;28;20052;-62
2022/04/06 06:24:04;;;;;;;7.32;3.50;;;;;;;;;;4953367;28;20328;-62
2022/04/06 06:26:29;;;;;;;8.15;3.53;;;;;;;;;;4953731;28;20048;-62
2022/04/06 06:28:54;;;;;;;6.32;4.07;;;;;;;;;;4954385;28;20429;-63
2022/04/06 06:31:20;;;;;;;6.20;3.72;;;;;;;;;;4953308;28;20536;-62
2022/04/06 06:33:46;;;;;;;7.20;4.10;;;;;;;;;;4954411;28;20053;-62
2022/04/06 06:36:11;;;;;;;6.90;4.30;;;;;;;;;;4953508;28;20385;-63
2022/04/06 06:38:36;;;;;;;9.32;4.45;;;;;;;;;;4953147;28;20381;-62
2022/04/06 06:41:02;;;;;;;8.57;4.25;;;;;;;;;;4953146;28;20162;-62
2022/04/06 06:43:27;;;;;;;9.27;4.07;;;;;;;;;;4953286;28;20445;-62
2022/04/06 06:45:52;;;;;;;7.43;3.90;;;;;;;;;;4953264;28;20460;-62
2022/04/06 06:48:17;;;;;;;6.75;3.58;;;;;;;;;;4953118;28;20034;-62
2022/04/06 06:50:43;;;;;;;5.60;3.58;;;;;;;;;;4952963;28;20376;-62
2022/04/06 06:53:08;;;;;;;6.90;3.75;;;;;;;;;;4935766;28;20392;-63
2022/04/06 06:55:33;;;;;;;8.05;4.25;;;;;;;;;;4952730;28;20034;-62
2022/04/06 06:57:59;;;;;;;7.60;3.67;;;;;;;;;;4953689;28;20421;-62
2022/04/06 07:00:24;;;;;;;7.25;3.55;;;;;;;;;;4953279;28;20479;-62
2022/04/06 07:02:49;;;;;;;7.47;3.88;;;;;;;;;;4953110;28;20029;-63
2022/04/06 07:05:15;;;;;;;7.70;3.83;;;;;;;;;;4952771;28;20030;-63
2022/04/06 07:07:47;;;;;;;6.38;3.40;;;;;;;;;;4953261;28;20460;-61
2022/04/06 07:10:13;;;;;;;6.40;3.70;;;;;;;;;;4953356;28;20329;-62
2022/04/06 07:12:38;;;;;;;7.90;3.85;;;;;;;;;;4953062;28;20333;-62
2022/04/06 07:15:04;;;;;;;8.48;3.67;;;;;;;;;;4952466;28;20432;-62
2022/04/06 07:17:29;;;;;;;7.65;3.83;;;;;;;;;;4953143;28;20376;-62
2022/04/06 07:19:55;;;;;;;5.80;3.65;;;;;;;;;;4951924;28;20042;-62
2022/04/06 07:22:20;;;;;;;8.77;3.60;;;;;;;;;;4952286;28;20437;-63
2022/04/06 07:24:45;;;;;;;8.65;3.20;;;;;;;;;;4953153;28;20130;-61
2022/04/06 07:27:10;;;;;;;5.88;3.25;;;;;;;;;;4952416;28;20349;-62
2022/04/06 07:29:36;;;;;;;6.47;3.28;;;;;;;;;;4952844;28;20318;-62
2022/04/06 07:32:01;;;;;;;5.43;3.67;;;;;;;;;;4952370;28;20393;-62
2022/04/06 07:34:26;;;;;;;5.25;3.25;;;;;;;;;;4951963;28;20025;-62
2022/04/06 07:36:52;;;;;;;5.30;3.42;;;;;;;;;;4952196;28;20345;-62
2022/04/06 07:39:18;;;;;;;5.32;3.35;;;;;;;;;;4951916;28;20468;-63
2022/04/06 07:41:43;;;;;;;6.07;3.78;;;;;;;;;;4953363;28;20425;-63
2022/04/06 07:44:09;;;;;;;6.18;3.80;;;;;;;;;;4952350;28;20382;-62
2022/04/06 07:46:35;;;;;;;7.03;3.30;;;;;;;;;;4952086;28;20452;-62
2022/04/06 07:49:00;;;;;;;5.95;3.03;;;;;;;;;;4952024;28;20527;-62
2022/04/06 07:51:25;;;;;;;6.80;3.70;;;;;;;;;;4952944;28;20504;-62
2022/04/06 07:53:51;;;;;;;5.10;3.10;;;;;;;;;;4951753;28;20460;-62
2022/04/06 07:56:16;;;;;;;5.22;3.17;;;;;;;;;;4952877;28;20393;-62
2022/04/06 07:58:41;;;;;;;5.38;3.20;;;;;;;;;;4951636;28;20393;-62
2022/04/06 08:01:08;;;;;;;5.53;3.45;;;;;;;;;;4951940;28;20523;-63
2022/04/06 08:03:33;;;;;;;5.10;3.50;;;;;;;;;;4952486;28;20392;-63
2022/04/06 08:05:58;;;;;;;8.77;3.65;;;;;;;;;;4951215;28;20406;-62
2022/04/06 08:08:24;;;;;;;5.82;3.38;;;;;;;;;;4952421;28;20362;-62
2022/04/06 08:10:49;;;;;;;8.40;3.80;;;;;;;;;;4952421;28;20105;-62
2022/04/06 08:13:14;;;;;;;5.03;2.65;;;;;;;;;;4951638;28;20429;-62
2022/04/06 08:15:40;;;;;;;5.43;3.42;;;;;;;;;;4933819;28;20449;-62
2022/04/06 08:18:06;;;;;;;6.10;3.45;;;;;;;;;;4951476;28;20372;-62
2022/04/06 08:20:31;;;;;;;7.75;3.60;;;;;;;;;;4951300;28;20430;-62
2022/04/06 08:22:57;;;;;;;6.57;3.08;;;;;;;;;;4951614;28;20576;-62
2022/04/06 08:25:22;;;;;;;6.68;3.35;;;;;;;;;;4951250;28;20026;-63
2022/04/06 08:27:47;;;;;;;6.05;3.60;;;;;;;;;;4951022;28;20477;-62
2022/04/06 08:30:13;;;;;;;6.00;3.50;;;;;;;;;;4951516;28;20320;-62
2022/04/06 08:32:39;;;;;;;7.10;3.67;;;;;;;;;;4950711;28;20433;-63
2022/04/06 08:35:05;;;;;;;6.05;3.47;;;;;;;;;;4950895;28;20384;-62
2022/04/06 08:37:31;;;;;;;8.93;2.97;;;;;;;;;;4951149;28;20431;-62
2022/04/06 08:39:56;;;;;;;5.47;3.33;;;;;;;;;;4950556;28;20441;-63
2022/04/06 08:42:22;;;;;;;6.15;3.15;;;;;;;;;;4951069;28;20399;-63
2022/04/06 08:44:47;;;;;;;4.97;3.00;;;;;;;;;;4933613;28;20413;-62
2022/04/06 08:47:14;;;;;;;7.30;3.50;;;;;;;;;;4950835;28;20389;-63
2022/04/06 08:49:42;;;;;;;6.55;3.55;;;;;;;;;;4951861;28;20469;-63
2022/04/06 08:52:09;;;;;;;9.03;3.37;;;;;;;;;;4950601;28;20108;-62
2022/04/06 08:54:35;;;;;;;5.57;3.13;;;;;;;;;;4951132;28;20550;-63
2022/04/06 08:57:02;;;;;;;6.65;3.45;;;;;;;;;;4951124;28;20361;-62
2022/04/06 08:59:27;;;;;;;5.30;2.88;;;;;;;;;;4950247;28;20392;-62
2022/04/06 09:01:53;;;;;;;6.05;3.05;;;;;;;;;;4950932;28;20095;-62
2022/04/06 09:04:20;;;;;;;3.88;2.47;;;;;;;;;;4950142;28;20584;-63
2022/04/06 09:06:46;;;;;;;7.13;2.97;;;;;;;;;;4950190;28;20030;-63
2022/04/06 09:09:19;;;;;;;8.20;3.10;;;;;;;;;;4950473;28;20428;-63
2022/04/06 09:11:45;;;;;;;5.22;3.15;;;;;;;;;;4951462;28;20473;-63
2022/04/06 09:14:11;;;;;;;5.63;3.35;;;;;;;;;;4950149;28;20333;-62
2022/04/06 09:16:36;;;;;;;5.53;2.65;;;;;;;;;;4933085;28;20503;-62
2022/04/06 09:19:11;;;;;;;5.25;3.03;;;;;;;;;;4949715;28;20429;-62
2022/04/06 09:21:45;;;;;;;5.30;3.17;;;;;;;;;;4950264;28;20357;-62
2022/04/06 09:24:14;;;;;;;4.90;3.17;;;;;;;;;;4951507;28;20315;-63
2022/04/06 09:26:40;;;;;;;4.15;2.85;;;;;;;;;;4949882;28;20464;-62
2022/04/06 09:29:06;;;;;;;4.72;2.97;;;;;;;;;;4950211;28;20425;-62
2022/04/06 09:31:37;;;;;;;5.65;3.47;;;;;;;;;;4950288;28;20453;-63
2022/04/06 09:34:03;;;;;;;6.30;3.35;;;;;;;;;;4950171;28;20401;-62
2022/04/06 09:36:32;;;;;;;7.30;3.80;;;;;;;;;;4608490;28;10001504;-62
2022/04/06 09:38:58;;;;;;;5.03;2.97;;;;;;;;;;4949234;28;20381;-63
2022/04/06 09:41:25;;;;;;;5.80;3.20;;;;;;;;;;4949759;28;20438;-63
2022/04/06 09:43:52;;;;;;;5.18;3.25;;;;;;;;;;4949540;28;20420;-63
2022/04/06 09:49:14;;;;;;;5.18;3.40;;;;;;;;;;4952028;28;20548;-63
2022/04/06 09:51:41;;;;;;;5.25;2.95;;;;;;;;;;4949511;28;20377;-63
2022/04/06 09:54:08;;;;;;;6.65;3.40;;;;;;;;;;4949567;28;20453;-62
2022/04/06 09:56:35;;;;;;;6.75;3.80;;;;;;;;;;4949598;28;20414;-62
2022/04/06 09:59:02;;;;;;;6.53;3.67;;;;;;;;;;4949703;28;20537;-62
2022/04/06 10:01:36;;;;;;;7.10;3.38;;;;;;;;;;4949817;28;20417;-63
2022/04/06 10:04:05;;;;;;;6.68;3.97;;;;;;;;;;4951138;28;20048;-63
2022/04/06 10:06:33;;;;;;;6.43;3.15;;;;;;;;;;4949670;28;20476;-63
2022/04/06 10:09:00;;;;;;;5.63;3.42;;;;;;;;;;4950557;28;20384;-62
2022/04/06 10:11:26;;;;;;;4.07;3.17;;;;;;;;;;4949386;28;20366;-63
2022/04/06 10:13:52;;;;;;;5.28;3.25;;;;;;;;;;4949564;28;20034;-62
2022/04/06 10:16:17;;;;;;;5.53;3.60;;;;;;;;;;4932015;28;20440;-64
2022/04/06 10:18:42;;;;;;;5.93;3.50;;;;;;;;;;4949411;28;20345;-63
2022/04/06 10:21:55;;;;;;;6.93;3.35;;;;;;;;;;4931810;28;20368;-62
2022/04/06 10:24:26;;;;;;;4.32;3.08;;;;;;;;;;4942830;28;20046;-63
2022/04/06 10:27:13;;;;;;;4.68;3.22;;;;;;;;;;4949437;28;20472;-62
2022/04/06 10:30:19;;;;;;;4.57;3.08;;;;;;;;;;4949227;28;20372;-62
2022/04/06 10:32:48;;;;;;;5.10;3.03;;;;;;;;;;4945852;28;20045;-62
2022/04/06 10:35:19;;;;;;;;;;;;;;;;;;4949851;28;20104;-63
2022/04/06 10:37:49;;;;;;;5.30;3.25;;;;;;;;;;4949306;28;20335;-63
2022/04/06 10:40:14;;;;;;;;;;;;;;;;;;4949287;28;20350;-63
2022/04/06 10:42:42;;;;;;;4.47;2.90;;;;;;;;;;4949211;28;20248;-62
2022/04/06 10:45:29;;;;;;;4.93;3.70;;;;;;;;;;4948823;28;20414;-62
2022/04/06 10:48:20;;;;;;;5.78;3.15;;;;;;;;;;4949122;28;20453;-63
2022/04/06 10:50:49;;;;;;;3.33;2.72;;;;;;;;;;4947371;28;20519;-63
2022/04/06 10:53:20;;;;;;;4.53;2.88;;;;;;;;;;4950298;28;20318;-63
2022/04/06 10:56:04;;;;;;;4.55;3.05;;;;;;;;;;4950710;28;20338;-63
2022/04/06 10:59:02;;;;;;;6.85;3.40;;;;;;;;;;4952912;28;20459;-62
2022/04/06 11:01:29;;;;;;;6.32;3.08;;;;;;;;;;4935009;28;20341;-63
2022/04/06 11:04:00;;;;;;;5.55;3.03;;;;;;;;;;4952875;28;20543;-62
2022/04/06 11:06:40;;;;;;;5.18;2.88;;;;;;;;;;4953013;28;20325;-63
2022/04/06 11:12:13;;;;;;;6.63;3.45;;;;;;;;;;4953471;28;20440;-63
2022/04/06 11:14:39;;;;;;;5.18;3.50;;;;;;;;;;4952424;28;20065;-63
2022/04/06 11:17:53;;;;;;;5.85;3.22;;;;;;;;;;4952993;28;20449;-63
2022/04/06 11:20:19;;;;;;;5.65;3.65;;;;;;;;;;4951307;28;20331;-63
2022/04/06 11:22:54;;;;;;;4.60;2.65;;;;;;;;;;4954117;28;20449;-63
2022/04/06 11:25:21;;;;;;;5.38;3.08;;;;;;;;;;4951779;28;20425;-63
2022/04/06 11:27:47;;;;;;;5.95;3.00;;;;;;;;;;4953421;28;20462;-64
2022/04/06 11:30:16;;;;;;;5.38;3.60;;;;;;;;;;4953207;28;20096;-62
2022/04/06 11:32:49;;;;;;;6.40;3.55;;;;;;;;;;4952084;28;20060;-63
2022/04/06 11:35:15;;;;;;;4.38;3.00;;;;;;;;;;4952116;28;20136;-63
2022/04/06 11:37:48;;;;;;;5.47;2.65;;;;;;;;;;4952075;28;20029;-62
2022/04/06 11:40:16;;;;;;;5.80;3.13;;;;;;;;;;4951902;28;20365;-63
2022/04/06 11:42:46;;;;;;;6.05;3.15;;;;;;;;;;4951843;28;20433;-63
2022/04/06 11:45:19;;;;;;;6.43;3.50;;;;;;;;;;4952533;28;20034;-63
2022/04/06 11:47:55;;;;;;;8.68;4.18;;;;;;;;;;4951898;28;20421;-63
2022/04/06 11:50:21;;;;;;;5.80;3.55;;;;;;;;;;4952061;28;20346;-64
2022/04/06 11:52:47;;;;;;;7.22;3.92;;;;;;;;;;4952019;28;20368;-63
2022/04/06 11:55:12;;;;;;;6.82;4.43;;;;;;;;;;4950074;28;20311;-63
2022/04/06 11:57:39;;;;;;;7.07;4.25;;;;;;;;;;4953290;28;20076;-62
2022/04/06 12:00:08;;;;;;;7.72;4.63;;;;;;;;;;4951324;28;20500;-62
2022/04/06 12:02:55;;;;;;;6.88;4.18;;;;;;;;;;4951657;28;20048;-63
2022/04/06 12:05:22;;;;;;;8.02;4.05;;;;;;;;;;4952124;28;20183;-62
2022/04/06 12:07:48;;;;;;;7.35;4.00;;;;;;;;;;4950538;28;20447;-63
2022/04/06 12:10:14;;;;;;;6.95;4.15;;;;;;;;;;4951836;28;20103;-63
2022/04/06 12:12:40;;;;;;;6.13;3.65;;;;;;;;;;4951308;28;20460;-63
2022/04/06 12:15:06;;;;;;;6.30;3.78;;;;;;;;;;4951931;28;20393;-63
2022/04/06 12:17:33;;;;;;;8.57;4.10;;;;;;;;;;4951393;28;20457;-63
2022/04/06 12:19:58;;;;;;;5.05;3.20;;;;;;;;;;4950706;28;20441;-63
2022/04/06 12:22:27;;;;;;;5.57;3.25;;;;;;;;;;4951321;28;20448;-63
2022/04/06 12:24:53;;;;;;;7.97;3.50;;;;;;;;;;4952548;28;20345;-63
2022/04/06 12:27:29;;;;;;;7.95;3.25;;;;;;;;;;4951126;28;20030;-63
2022/04/06 12:30:13;;;;;;;8.65;3.70;;;;;;;;;;4949883;28;20773;-62
2022/04/06 12:32:45;;;;;;;6.72;3.70;;;;;;;;;;4951651;28;20452;-63
2022/04/06 12:35:21;;;;;;;5.10;2.95;;;;;;;;;;4950803;28;20385;-63
2022/04/06 12:37:47;;;;;;;8.07;3.97;;;;;;;;;;4950704;28;20349;-63
2022/04/06 12:40:21;;;;;;;6.00;3.45;;;;;;;;;;4950371;28;20358;-62
2022/04/06 12:42:47;;;;;;;8.50;3.15;;;;;;;;;;4951161;28;20426;-63
2022/04/06 12:45:13;;;;;;;6.85;3.42;;;;;;;;;;4951303;28;20484;-63
2022/04/06 12:47:39;;;;;;;5.32;3.10;;;;;;;;;;4950786;28;20377;-63
2022/04/06 12:50:11;;;;;;;5.10;3.42;;;;;;;;;;4950664;28;20357;-64
2022/04/06 12:52:40;;;;;;;6.18;3.88;;;;;;;;;;4950597;28;20029;-64
2022/04/06 12:55:13;;;;;;;6.22;3.17;;;;;;;;;;4951880;28;20058;-63
2022/04/06 12:57:38;;;;;;;7.57;3.30;;;;;;;;;;4950581;28;20352;-63
2022/04/06 13:00:13;;;;;;;7.30;4.00;;;;;;;;;;4950923;28;20317;-63
2022/04/06 13:02:47;;;;;;;6.72;3.00;;;;;;;;;;4951339;28;20326;-63
2022/04/06 13:05:14;;;;;;;6.05;2.80;;;;;;;;;;4950694;28;20441;-62
2022/04/06 13:07:41;;;;;;;6.47;3.65;;;;;;;;;;4950070;28;20030;-63
2022/04/06 13:10:12;;;;;;;5.20;3.13;;;;;;;;;;4950823;28;20302;-63
2022/04/06 13:12:39;;;;;;;6.82;3.38;;;;;;;;;;4950089;28;20422;-63
2022/04/06 13:15:06;;;;;;;6.55;3.58;;;;;;;;;;4950412;28;20319;-63
2022/04/06 13:17:32;;;;;;;8.55;3.08;;;;;;;;;;4949741;28;20322;-63
2022/04/06 13:19:57;;;;;;;7.05;3.08;;;;;;;;;;4950760;28;20320;-63
2022/04/06 13:22:23;;;;;;;8.15;3.78;;;;;;;;;;4950632;28;20333;-64
2022/04/06 13:24:48;;;;;;;7.13;4.07;;;;;;;;;;4950252;28;20034;-64
2022/04/06 13:27:14;;;;;;;11.63;4.68;;;;;;;;;;4951170;28;20072;-63
2022/04/06 13:29:40;;;;;;;8.43;3.97;;;;;;;;;;4949974;28;20057;-65
2022/04/06 13:32:06;;;;;;;8.15;3.85;;;;;;;;;;4951123;28;20524;-63
2022/04/06 13:34:32;;;;;;;8.57;3.55;;;;;;;;;;4950421;28;20030;-63
2022/04/06 13:36:57;;;;;;;7.32;3.83;;;;;;;;;;4950080;28;20464;-64
2022/04/06 13:39:23;;;;;;;7.68;3.90;;;;;;;;;;4949310;28;20434;-63
2022/04/06 13:41:55;;;;;;;6.88;3.20;;;;;;;;;;4949905;28;20461;-63
2022/04/06 13:44:30;;;;;;;6.05;3.67;;;;;;;;;;4950275;28;20441;-63
2022/04/06 13:46:57;;;;;;;8.13;3.92;;;;;;;;;;4949564;28;20344;-64
2022/04/06 13:49:22;;;;;;;8.48;4.07;;;;;;;;;;4949942;28;20314;-64
2022/04/06 13:51:50;;;;;;;6.00;3.40;;;;;;;;;;4949520;28;20376;-63
2022/04/06 13:54:19;;;;;;;8.65;4.15;;;;;;;;;;4950840;28;20377;-63
2022/04/06 13:56:45;;;;;;;8.55;4.65;;;;;;;;;;4950046;28;20627;-64
2022/04/06 13:59:11;;;;;;;9.85;4.80;;;;;;;;;;4949705;28;20512;-63
2022/04/06 14:01:36;;;;;;;7.07;3.47;;;;;;;;;;4950564;28;20459;-64
2022/04/06 14:04:03;;;;;;;6.40;3.70;;;;;;;;;;4951393;28;20060;-64
2022/04/06 14:06:28;;;;;;;9.00;4.05;;;;;;;;;;4950037;28;20413;-63
2022/04/06 14:08:54;;;;;;;6.88;3.25;;;;;;;;;;4949877;28;20066;-64
2022/04/06 14:11:19;;;;;;;7.88;3.45;;;;;;;;;;4949613;28;20419;-63
2022/04/06 14:13:44;;;;;;;7.82;3.63;;;;;;;;;;4950992;28;20445;-63
2022/04/06 14:16:10;;;;;;;6.70;3.42;;;;;;;;;;4949614;28;20341;-63
2022/04/06 14:18:36;;;;;;;6.90;3.50;;;;;;;;;;4949281;28;20392;-63
2022/04/06 14:21:02;;;;;;;8.93;3.75;;;;;;;;;;4950041;28;20500;-63
2022/04/06 14:23:27;;;;;;;7.63;3.35;;;;;;;;;;4949734;28;20333;-63
2022/04/06 14:25:52;;;;;;;7.43;3.60;;;;;;;;;;4949672;28;20413;-63
2022/04/06 14:28:17;;;;;;;6.80;3.40;;;;;;;;;;4949199;28;20506;-64
2022/04/06 14:30:48;;;;;;;6.47;3.28;;;;;;;;;;4951128;28;20469;-64
2022/04/06 14:33:16;;;;;;;8.15;3.90;;;;;;;;;;4954175;28;20510;-64
2022/04/06 14:35:41;;;;;;;9.27;3.83;;;;;;;;;;4954049;28;20406;-64
2022/04/06 14:38:06;;;;;;;5.95;3.47;;;;;;;;;;4953376;28;20388;-63
2022/04/06 14:40:32;;;;;;;8.23;3.53;;;;;;;;;;4952669;28;20072;-64
2022/04/06 14:42:57;;;;;;;9.25;4.68;;;;;;;;;;4953403;28;20519;-63
2022/04/06 14:45:22;;;;;;;7.97;3.88;;;;;;;;;;4953118;28;20026;-64
2022/04/06 14:47:48;;;;;;;7.57;3.67;;;;;;;;;;4953289;28;20049;-64
2022/04/06 14:50:13;;;;;;;13.10;4.43;;;;;;;;;;4953104;28;20437;-63
2022/04/06 14:52:38;;;;;;;10.60;4.35;;;;;;;;;;4952756;28;20108;-64